Time;durP1;ratioP1;P1;durP2;ratioP2;P2;SDS_P1;SDS_P2;PMS_P1;PMS_P2;Temp;Humidity;BMP_temperature;BMP_pressure;BME280_temperature;BME280_humidity;BME280_pressure;Samples;Min_cycle;Max_cycle;Signal;HPM_P1;HPM_P2
2021/01/31 00:02:30;;;;;;;14.57;8.15;;;;;;;-4.27;98.60;99793.25;4933292;28;20096;-57
2021/01/31 00:04:57;;;;;;;15.27;9.00;;;;;;;-4.40;96.88;99797.38;4935419;28;20108;-57
2021/01/31 00:07:29;;;;;;;14.57;8.18;;;;;;;-4.44;96.20;99797.03;4932474;28;20048;-56
2021/01/31 00:10:03;;;;;;;13.43;7.93;;;;;;;-4.80;97.64;99796.19;4935039;28;20516;-55
2021/01/31 00:12:39;;;;;;;14.57;8.05;;;;;;;-4.25;98.31;99796.69;4935657;28;20136;-54
2021/01/31 00:15:27;;;;;;;12.45;7.18;;;;;;;-4.13;96.33;99797.56;4932485;28;20423;-56
2021/01/31 00:17:59;;;;;;;9.20;6.10;;;;;;;-4.46;96.67;99796.09;4934743;28;20047;-57
2021/01/31 00:20:28;;;;;;;15.75;7.65;;;;;;;-4.10;95.82;99800.28;4935788;28;20067;-54
2021/01/31 00:23:01;;;;;;;13.20;6.70;;;;;;;-4.52;96.24;99795.66;4934786;28;20059;-55
2021/01/31 00:25:31;;;;;;;11.57;6.45;;;;;;;-4.38;96.40;99795.88;4935323;28;20598;-54
2021/01/31 00:28:02;;;;;;;11.13;6.35;;;;;;;-4.15;97.08;99789.97;4934531;28;20047;-53
2021/01/31 00:30:45;;;;;;;11.90;7.05;;;;;;;-4.00;94.80;99797.66;4935733;28;20052;-55
2021/01/31 00:33:27;;;;;;;9.63;5.78;;;;;;;-4.18;94.38;99798.88;4936385;28;20130;-55
2021/01/31 00:36:04;;;;;;;7.95;5.75;;;;;;;-4.23;95.95;99801.06;4936179;28;20419;-55
2021/01/31 00:38:40;;;;;;;12.35;6.13;;;;;;;-4.19;95.16;99802.16;4935678;28;20051;-54
2021/01/31 00:41:16;;;;;;;11.73;6.25;;;;;;;-4.17;95.66;99801.47;4934597;28;20058;-56
2021/01/31 00:43:45;;;;;;;10.75;6.32;;;;;;;-4.50;95.67;99799.13;4931977;28;20047;-54
2021/01/31 00:46:31;;;;;;;10.82;6.45;;;;;;;-4.79;96.11;99804.56;4932836;28;20058;-54
2021/01/31 00:49:13;;;;;;;10.88;6.68;;;;;;;-5.06;96.93;99801.81;4934854;28;20059;-54
2021/01/31 00:51:42;;;;;;;13.65;7.90;;;;;;;-5.40;96.74;99800.97;4932666;28;20044;-56
2021/01/31 00:54:18;;;;;;;12.32;7.47;;;;;;;-4.98;96.57;99803.25;4933903;28;20047;-54
2021/01/31 00:56:49;;;;;;;14.45;8.27;;;;;;;-5.56;96.66;99805.56;4932377;28;20444;-54
2021/01/31 00:59:22;;;;;;;13.88;8.57;;;;;;;-5.19;96.83;99816.63;4932496;28;20384;-56
2021/01/31 01:01:53;;;;;;;16.35;9.00;;;;;;;-5.40;96.79;99805.97;4933308;28;20051;-55
2021/01/31 01:04:23;;;;;;;20.70;11.18;;;;;;;-4.94;97.55;99801.84;4932199;28;20068;-55
2021/01/31 01:06:52;;;;;;;49.08;12.85;;;;;;;-4.93;97.83;99804.44;4932867;28;20443;-53
2021/01/31 01:09:29;;;;;;;28.67;11.68;;;;;;;-4.96;97.99;99803.34;4932210;28;20066;-53
2021/01/31 01:11:58;;;;;;;150.30;19.33;;;;;;;-5.55;99.46;99809.78;4934296;28;20047;-57
2021/01/31 01:14:30;;;;;;;88.35;16.58;;;;;;;-5.32;100.00;99814.00;4931523;28;20051;-55
2021/01/31 01:17:09;;;;;;;46.05;15.30;;;;;;;-5.58;100.00;99807.09;4933915;28;20554;-50
2021/01/31 01:19:47;;;;;;;74.90;16.33;;;;;;;-5.36;100.00;99807.94;4931310;28;20048;-53
2021/01/31 01:22:16;;;;;;;31.60;13.57;;;;;;;-5.34;100.00;99800.56;4932740;28;20058;-56
2021/01/31 01:24:52;;;;;;;46.25;14.80;;;;;;;-5.23;100.00;99804.69;4932804;28;20111;-55
2021/01/31 01:27:30;;;;;;;68.05;15.40;;;;;;;-4.76;100.00;99797.28;4931515;28;20047;-53
2021/01/31 01:29:58;;;;;;;35.17;14.00;;;;;;;-5.20;100.00;99800.81;4933758;28;20055;-57
2021/01/31 01:32:27;;;;;;;78.28;17.45;;;;;;;-5.50;100.00;99801.03;4931026;28;20058;-54
2021/01/31 01:35:01;;;;;;;89.28;17.27;;;;;;;-5.75;100.00;99799.19;4933425;28;20423;-53
2021/01/31 01:37:36;;;;;;;50.30;13.75;;;;;;;-5.30;100.00;99798.41;4934290;28;20438;-52
2021/01/31 01:40:17;;;;;;;34.80;15.32;;;;;;;-5.41;100.00;99799.22;4934236;28;20047;-57
2021/01/31 01:42:49;;;;;;;35.65;15.55;;;;;;;-5.53;100.00;99808.28;4932213;28;20050;-54
2021/01/31 01:45:26;;;;;;;46.10;15.35;;;;;;;-5.15;100.00;99794.50;4932464;28;20183;-56
2021/01/31 01:48:13;;;;;;;40.63;15.23;;;;;;;-5.36;100.00;99802.94;4933086;28;20439;-57
2021/01/31 01:50:53;;;;;;;37.95;15.30;;;;;;;-5.72;100.00;99801.06;4931974;28;20111;-56
2021/01/31 01:53:27;;;;;;;49.05;14.90;;;;;;;-5.09;100.00;99798.22;4931741;28;20502;-52
2021/01/31 01:56:38;;;;;;;49.92;15.38;;;;;;;-4.85;100.00;99792.50;4933458;28;20142;-57
2021/01/31 01:59:10;;;;;;;42.10;15.20;;;;;;;-5.07;100.00;99801.72;4925188;28;20051;-53
2021/01/31 02:01:49;;;;;;;33.58;14.93;;;;;;;-4.92;99.98;99798.69;4934765;28;20134;-57
2021/01/31 02:04:26;;;;;;;46.90;13.80;;;;;;;-5.25;98.82;99796.22;4936304;28;20289;-51
2021/01/31 02:07:03;;;;;;;50.83;13.10;;;;;;;-5.01;99.86;99803.00;4936784;28;20052;-50
2021/01/31 02:09:36;;;;;;;46.10;14.07;;;;;;;-5.55;98.80;99802.31;4937984;28;20051;-53
2021/01/31 02:12:14;;;;;;;30.60;12.68;;;;;;;-5.40;99.50;99805.97;4936661;28;20095;-53
2021/01/31 02:14:49;;;;;;;38.63;13.52;;;;;;;-5.86;99.96;99809.13;4935437;28;20046;-53
2021/01/31 02:17:26;;;;;;;70.82;15.45;;;;;;;-6.01;100.00;99801.38;4936052;28;20119;-54
2021/01/31 02:20:06;;;;;;;30.85;12.52;;;;;;;-5.91;100.00;99809.66;4936813;28;20051;-55
2021/01/31 02:22:52;;;;;;;42.30;14.88;;;;;;;-5.65;100.00;99805.75;4937102;28;20055;-57
2021/01/31 02:25:52;;;;;;;39.10;14.00;;;;;;;-5.19;100.00;99809.16;4935780;28;20075;-53
2021/01/31 02:28:53;;;;;;;40.15;13.43;;;;;;;-5.19;99.97;99799.16;4935945;28;20130;-56
2021/01/31 02:31:44;;;;;;;33.78;14.23;;;;;;;-5.71;98.88;99798.69;4932975;28;20468;-52
2021/01/31 02:34:39;;;;;;;34.60;12.95;;;;;;;-6.02;99.96;99799.63;4936402;28;20069;-54
2021/01/31 02:37:24;;;;;;;42.20;13.45;;;;;;;-6.27;100.00;99802.75;4935850;28;20467;-54
2021/01/31 02:39:59;;;;;;;30.05;12.73;;;;;;;-5.74;100.00;99800.06;4935724;28;20563;-50
2021/01/31 02:42:46;;;;;;;37.17;12.93;;;;;;;-5.27;99.35;99802.72;4937042;28;20270;-54
2021/01/31 02:45:45;;;;;;;80.03;13.88;;;;;;;-5.74;97.66;99807.53;4935269;28;20054;-50
2021/01/31 02:48:36;;;;;;;24.83;10.95;;;;;;;-6.11;100.00;99802.28;4935832;28;20532;-54
2021/01/31 02:51:20;;;;;;;114.40;17.67;;;;;;;-6.31;100.00;99809.88;4937228;28;20090;-55
2021/01/31 02:54:02;;;;;;;50.55;12.75;;;;;;;-5.94;100.00;99814.44;4934922;28;20055;-54
2021/01/31 02:56:43;;;;;;;24.45;11.95;;;;;;;-5.54;98.90;99806.56;4936628;28;20591;-52
2021/01/31 02:59:59;;;;;;;24.50;11.13;;;;;;;-5.82;99.58;99803.59;4935269;28;20135;-55
2021/01/31 03:02:32;;;;;;;31.98;10.75;;;;;;;-5.70;98.18;99805.41;4931678;28;20138;-56
2021/01/31 03:05:05;;;;;;;37.10;11.55;;;;;;;-5.71;98.89;99800.31;4936536;28;20043;-55
2021/01/31 03:07:51;;;;;;;30.08;11.30;;;;;;;-5.69;98.20;99809.63;4936918;28;20134;-53
2021/01/31 03:10:40;;;;;;;40.88;11.27;;;;;;;-5.83;98.21;99797.75;4934686;28;20039;-55
2021/01/31 03:13:37;;;;;;;61.13;13.05;;;;;;;-6.09;99.09;99804.91;4935326;28;20082;-57
2021/01/31 03:16:16;;;;;;;28.05;11.93;;;;;;;-6.03;99.99;99806.25;4935125;28;20708;-55
2021/01/31 03:18:51;;;;;;;47.78;12.57;;;;;;;-6.23;100.00;99807.22;4933902;28;20050;-56
2021/01/31 03:21:26;;;;;;;43.40;13.27;;;;;;;-6.31;100.00;99800.78;4933981;28;20091;-51
2021/01/31 03:24:54;;;;;;;34.50;12.05;;;;;;;-5.73;100.00;99805.19;4935522;28;20453;-56
2021/01/31 03:27:45;;;;;;;24.42;10.40;;;;;;;-5.91;100.00;99804.66;4912203;29;20524;-54
2021/01/31 03:30:14;;;;;;;43.42;12.50;;;;;;;-6.12;99.53;99798.06;4914364;29;20106;-57
2021/01/31 03:32:56;;;;;;;37.58;12.45;;;;;;;-5.72;98.99;99808.56;4932211;28;20413;-56
2021/01/31 03:35:39;;;;;;;36.15;12.40;;;;;;;-6.33;99.68;99816.34;4932629;28;20039;-56
2021/01/31 03:38:28;;;;;;;38.97;11.68;;;;;;;-6.18;100.00;99815.03;4932755;28;20051;-56
2021/01/31 03:41:01;;;;;;;35.65;11.02;;;;;;;-5.65;100.00;99816.59;4935426;28;20159;-54
2021/01/31 03:43:30;;;;;;;31.92;12.65;;;;;;;-5.50;99.53;99819.38;4935798;28;20058;-55
2021/01/31 03:46:22;;;;;;;38.00;12.18;;;;;;;-5.37;99.12;99824.50;4935114;28;20495;-54
2021/01/31 03:49:17;;;;;;;42.50;12.30;;;;;;;-5.86;99.37;99826.59;4934239;28;20476;-55
2021/01/31 03:51:49;;;;;;;46.05;11.55;;;;;;;-5.54;99.74;99821.53;4934233;28;20415;-54
2021/01/31 03:54:26;;;;;;;47.83;11.65;;;;;;;-5.54;99.07;99826.53;4932686;28;20070;-56
2021/01/31 03:56:59;;;;;;;30.17;10.85;;;;;;;-5.44;99.85;99826.44;4934383;28;20051;-54
2021/01/31 03:59:41;;;;;;;31.00;10.85;;;;;;;-5.46;99.16;99825.44;4932512;28;20564;-58
2021/01/31 04:02:18;;;;;;;49.47;10.85;;;;;;;-5.31;98.14;99823.25;4932896;28;20047;-55
2021/01/31 04:04:48;;;;;;;27.33;10.13;;;;;;;-5.45;98.55;99828.06;4933209;28;20059;-56
2021/01/31 04:07:34;;;;;;;32.92;11.02;;;;;;;-5.31;98.77;99828.22;4933961;28;20165;-52
2021/01/31 04:10:05;;;;;;;37.63;12.07;;;;;;;-5.57;99.59;99822.16;4943624;28;20229;-54
2021/01/31 04:12:46;;;;;;;24.17;10.63;;;;;;;-5.69;99.75;99824.59;4932478;28;20071;-54
2021/01/31 04:15:28;;;;;;;56.78;11.85;;;;;;;-6.00;100.00;99821.44;4934160;28;20053;-54
2021/01/31 04:18:04;;;;;;;28.23;10.43;;;;;;;-5.57;100.00;99817.16;4934134;28;20426;-55
2021/01/31 04:20:37;;;;;;;39.88;11.10;;;;;;;-5.35;100.00;99818.78;4934653;28;20058;-57
2021/01/31 04:23:05;;;;;;;35.22;10.55;;;;;;;-5.28;99.93;99819.31;4933999;28;20063;-55
2021/01/31 04:25:42;;;;;;;23.65;10.32;;;;;;;-5.42;99.38;99822.44;4931975;28;20065;-55
2021/01/31 04:28:26;;;;;;;30.25;11.55;;;;;;;-5.25;99.94;99822.06;4933640;28;20064;-55
2021/01/31 04:30:57;;;;;;;23.08;10.68;;;;;;;-5.40;99.40;99826.78;4933507;28;20212;-52
2021/01/31 04:33:26;;;;;;;29.50;11.52;;;;;;;-5.70;100.00;99826.97;4933425;28;20047;-55
2021/01/31 04:36:12;;;;;;;27.20;11.13;;;;;;;-5.01;99.91;99820.47;4935075;28;20712;-53
2021/01/31 04:38:39;;;;;;;33.58;9.52;;;;;;;-5.42;99.17;99817.44;4946632;28;20479;-55
2021/01/31 04:41:06;;;;;;;36.17;10.38;;;;;;;-5.18;98.83;99815.88;4935468;28;20418;-53
2021/01/31 04:43:36;;;;;;;31.02;9.93;;;;;;;-5.20;98.74;99815.78;4933005;28;20051;-56
2021/01/31 04:46:05;;;;;;;38.42;11.02;;;;;;;-5.26;98.28;99814.47;4935238;28;20494;-55
2021/01/31 04:48:59;;;;;;;25.15;10.10;;;;;;;-5.42;99.65;99810.81;4932783;28;20140;-57
2021/01/31 04:52:06;;;;;;;35.35;10.88;;;;;;;-5.13;100.00;99819.56;4934478;28;20043;-59
2021/01/31 04:54:40;;;;;;;27.52;11.48;;;;;;;-5.34;99.65;99813.88;4928165;28;20142;-59
2021/01/31 04:57:26;;;;;;;26.40;10.63;;;;;;;-5.35;99.80;99817.16;4934880;28;20047;-51
2021/01/31 04:59:53;;;;;;;36.05;10.85;;;;;;;-5.18;100.00;99820.88;4934670;28;20079;-50
2021/01/31 05:02:43;;;;;;;25.83;10.75;;;;;;;-5.16;99.92;99827.72;4932954;28;20052;-55
2021/01/31 05:05:51;;;;;;;30.20;10.18;;;;;;;-4.99;99.35;99826.47;4934437;28;20043;-55
2021/01/31 05:08:32;;;;;;;28.63;9.90;;;;;;;-5.28;99.12;99824.31;4944574;28;20129;-55
2021/01/31 05:11:41;;;;;;;26.88;10.20;;;;;;;-5.16;100.00;99824.34;4935338;28;20102;-56
2021/01/31 05:14:31;;;;;;;26.48;11.15;;;;;;;-5.04;100.00;99832.72;4931556;28;20061;-52
2021/01/31 05:17:00;;;;;;;23.55;10.25;;;;;;;-4.95;99.78;99822.53;4934894;28;20861;-56
2021/01/31 05:19:37;;;;;;;29.85;11.73;;;;;;;-4.88;99.12;99824.75;4935308;28;20051;-56
2021/01/31 05:22:06;;;;;;;23.73;8.25;;;;;;;-5.24;98.55;99830.41;4934503;28;20075;-52
2021/01/31 05:24:36;;;;;;;30.15;9.90;;;;;;;-4.99;97.75;99840.53;4932459;28;20485;-55
2021/01/31 05:27:11;;;;;;;24.83;8.60;;;;;;;-5.10;98.29;99842.25;4934320;28;20082;-57
2021/01/31 05:29:43;;;;;;;35.67;10.13;;;;;;;-5.04;98.30;99837.72;4932784;28;20098;-55
2021/01/31 05:32:30;;;;;;;35.35;10.18;;;;;;;-5.09;98.24;99839.00;4934202;28;20110;-56
2021/01/31 05:35:02;;;;;;;23.63;9.38;;;;;;;-5.35;98.57;99836.25;4938875;28;20047;-54
2021/01/31 05:37:54;;;;;;;22.88;10.32;;;;;;;-5.08;98.27;99835.78;4939382;28;20039;-57
2021/01/31 05:40:40;;;;;;;31.33;10.25;;;;;;;-5.02;98.10;99846.19;4937441;28;20048;-55
2021/01/31 05:43:15;;;;;;;30.35;11.15;;;;;;;-5.27;98.37;99842.63;4938278;28;20054;-52
2021/01/31 05:45:44;;;;;;;21.30;9.57;;;;;;;-4.94;98.95;99842.63;4937014;28;20071;-52
2021/01/31 05:48:35;;;;;;;27.98;10.40;;;;;;;-5.16;97.85;99846.81;4938081;28;20051;-55
2021/01/31 05:51:24;;;;;;;27.85;9.70;;;;;;;-5.14;98.25;99841.16;4938038;28;20138;-55
2021/01/31 05:54:01;;;;;;;28.73;10.63;;;;;;;-5.43;98.07;99839.03;4937482;28;20062;-54
2021/01/31 05:56:42;;;;;;;;;;;;;;;-5.20;98.75;99847.34;4939079;28;20504;-56
2021/01/31 05:59:15;;;;;;;23.00;10.30;;;;;;;-5.38;99.57;99850.19;4937437;28;20009;-52
2021/01/31 06:01:59;;;;;;;22.20;9.75;;;;;;;-5.02;99.17;99861.19;4936704;28;20464;-53
2021/01/31 06:04:38;;;;;;;21.63;8.93;;;;;;;-5.14;98.38;99851.16;4938934;28;20212;-57
2021/01/31 06:07:18;;;;;;;27.80;10.40;;;;;;;-5.50;98.81;99851.81;4935473;28;20051;-54
2021/01/31 06:09:55;;;;;;;30.98;9.95;;;;;;;-5.12;99.41;99859.63;4937109;28;20118;-58
2021/01/31 06:12:22;;;;;;;27.88;9.38;;;;;;;-5.18;98.27;99859.16;4935972;28;20099;-57
2021/01/31 06:15:07;;;;;;;25.50;10.05;;;;;;;-5.34;97.95;99861.28;4938339;28;20051;-56
2021/01/31 06:17:37;;;;;;;26.20;10.07;;;;;;;-5.60;98.83;99855.97;4938549;28;20131;-54
2021/01/31 06:20:12;;;;;;;57.33;11.02;;;;;;;-5.48;99.02;99862.75;4937362;28;20051;-56
2021/01/31 06:22:46;;;;;;;27.58;9.80;;;;;;;-5.57;99.65;99866.19;4935916;28;20051;-55
2021/01/31 06:25:28;;;;;;;25.83;10.30;;;;;;;-5.95;100.00;99865.03;4936987;28;20043;-55
2021/01/31 06:28:14;;;;;;;21.80;9.90;;;;;;;-5.30;100.00;99873.25;4937628;28;20382;-55
2021/01/31 06:31:15;;;;;;;20.30;8.52;;;;;;;-5.32;99.36;99869.75;4936390;28;20044;-55
2021/01/31 06:33:45;;;;;;;22.83;10.05;;;;;;;-5.28;98.57;99871.72;4937653;28;20055;-54
2021/01/31 06:36:33;;;;;;;51.28;10.93;;;;;;;-5.46;98.04;99877.81;4936777;28;20047;-53
2021/01/31 06:39:34;;;;;;;25.90;9.65;;;;;;;-5.68;99.08;99875.34;4937231;28;20138;-55
2021/01/31 06:42:11;;;;;;;26.70;10.23;;;;;;;-5.82;99.31;99875.88;4941210;28;20055;-56
2021/01/31 06:45:00;;;;;;;23.88;10.45;;;;;;;-5.59;100.00;99873.56;4939419;28;20482;-55
2021/01/31 06:48:04;;;;;;;28.60;9.05;;;;;;;-5.48;98.47;99882.69;4937903;28;20054;-58
2021/01/31 06:51:00;;;;;;;18.50;9.00;;;;;;;-5.56;97.79;99886.22;4938329;28;20039;-56
2021/01/31 06:53:55;;;;;;;27.42;9.18;;;;;;;-5.33;97.04;99882.09;4938146;28;20146;-56
2021/01/31 06:56:43;;;;;;;20.88;9.10;;;;;;;-5.37;97.26;99886.84;4936157;28;20484;-57
2021/01/31 06:59:37;;;;;;;20.83;8.07;;;;;;;-5.26;95.95;99884.31;4935684;28;20053;-52
2021/01/31 07:02:48;;;;;;;23.30;9.10;;;;;;;-5.55;97.63;99890.47;4935918;28;20479;-51
2021/01/31 07:05:54;;;;;;;22.35;9.38;;;;;;;-5.61;97.07;99892.50;4935641;28;20099;-53
2021/01/31 07:08:43;;;;;;;15.95;7.97;;;;;;;-5.28;97.31;99894.16;4935497;28;20043;-53
2021/01/31 07:11:45;;;;;;;24.30;8.23;;;;;;;-5.63;96.70;99887.41;4936212;28;20051;-51
2021/01/31 07:14:32;;;;;;;24.35;8.05;;;;;;;-5.36;95.53;99895.25;4928597;28;20098;-53
2021/01/31 07:17:27;;;;;;;24.02;8.52;;;;;;;-5.49;96.94;99895.94;4936679;28;20070;-48
2021/01/31 07:20:10;;;;;;;25.13;8.80;;;;;;;-5.80;96.30;99899.31;4936191;28;20179;-52
2021/01/31 07:22:58;;;;;;;23.95;9.13;;;;;;;-5.74;98.13;99894.81;4936297;28;20093;-52
2021/01/31 07:25:52;;;;;;;23.63;9.40;;;;;;;-5.59;97.53;99902.56;4936361;28;20134;-53
2021/01/31 07:28:27;;;;;;;16.83;7.72;;;;;;;-5.44;97.06;99907.13;4935212;28;20563;-53
2021/01/31 07:31:16;;;;;;;32.58;8.95;;;;;;;-5.65;95.57;99905.47;4935809;28;20058;-51
2021/01/31 07:33:48;;;;;;;15.70;7.63;;;;;;;-5.36;96.80;99907.72;4934581;28;20051;-50
2021/01/31 07:36:44;;;;;;;16.40;7.80;;;;;;;-5.07;95.50;99902.41;4934448;28;20050;-52
2021/01/31 07:39:43;;;;;;;14.95;7.55;;;;;;;-5.08;95.09;99909.75;4935196;28;20047;-52
2021/01/31 07:42:17;;;;;;;20.27;8.65;;;;;;;-5.12;93.66;99903.69;4936142;28;20043;-50
2021/01/31 07:45:03;;;;;;;20.73;8.45;;;;;;;-5.02;94.17;99908.59;4935249;28;20055;-51
2021/01/31 07:47:30;;;;;;;22.75;8.88;;;;;;;-5.26;96.13;99907.66;4936260;28;20054;-48
2021/01/31 07:50:03;;;;;;;23.00;7.45;;;;;;;-4.92;94.24;99908.50;4935981;28;20051;-51
2021/01/31 07:52:57;;;;;;;18.13;8.52;;;;;;;-4.95;94.26;99908.28;4943291;28;20054;-56
2021/01/31 07:55:44;;;;;;;24.58;8.38;;;;;;;-4.97;94.50;99902.31;4927167;28;20597;-50
2021/01/31 07:58:23;;;;;;;27.60;9.07;;;;;;;-5.51;95.43;99902.41;4934333;28;20117;-54
2021/01/31 08:00:53;;;;;;;17.60;8.10;;;;;;;-4.82;95.19;99900.06;4935529;28;20075;-53
2021/01/31 08:03:36;;;;;;;17.20;7.50;;;;;;;-4.79;95.21;99902.81;4945475;28;20154;-53
2021/01/31 08:06:21;;;;;;;22.13;7.50;;;;;;;-4.99;95.18;99900.44;4939414;28;20062;-51
2021/01/31 08:08:53;;;;;;;37.67;7.67;;;;;;;-5.01;94.43;99902.84;4935571;28;20056;-47
2021/01/31 08:11:25;;;;;;;14.90;6.60;;;;;;;-4.71;93.91;99910.88;4934369;28;20842;-52
2021/01/31 08:13:56;;;;;;;13.30;7.05;;;;;;;-4.80;94.02;99907.69;4936222;28;20051;-52
2021/01/31 08:17:00;;;;;;;16.15;7.25;;;;;;;-5.00;93.91;99913.69;4934317;28;20074;-51
2021/01/31 08:19:33;;;;;;;14.40;7.20;;;;;;;-4.76;94.51;99908.03;4944930;28;20153;-47
2021/01/31 08:22:35;;;;;;;14.85;6.57;;;;;;;-4.24;92.61;99906.78;4945733;28;20125;-49
2021/01/31 08:25:08;;;;;;;17.10;7.32;;;;;;;-4.25;92.15;99909.16;4936202;28;20074;-50
2021/01/31 08:27:41;;;;;;;13.45;7.03;;;;;;;-3.86;90.13;99906.09;4936478;28;20480;-51
2021/01/31 08:30:26;;;;;;;18.75;8.60;;;;;;;-4.28;92.89;99903.97;4937377;28;20423;-51
2021/01/31 08:33:04;;;;;;;15.13;8.37;;;;;;;-3.78;90.37;99904.16;4935681;28;20578;-52
2021/01/31 08:35:43;;;;;;;17.05;8.10;;;;;;;-3.59;88.22;99907.16;4936205;28;20082;-53
2021/01/31 08:38:24;;;;;;;17.55;7.35;;;;;;;-3.81;89.69;99906.44;4934990;28;20071;-50
2021/01/31 08:43:41;;;;;;;12.98;7.10;;;;;;;-4.46;89.65;99916.00;4936364;28;20106;-50
2021/01/31 08:46:38;;;;;;;16.45;7.15;;;;;;;-4.41;90.37;99917.19;4933013;28;20503;-54
2021/01/31 08:49:22;;;;;;;15.68;8.00;;;;;;;-4.16;89.59;99924.81;4935370;28;20047;-51
2021/01/31 08:52:04;;;;;;;15.23;7.40;;;;;;;-4.10;90.41;99917.75;4934736;28;20072;-52
2021/01/31 08:54:31;;;;;;;21.35;8.57;;;;;;;-4.31;91.55;99917.09;4936077;28;20782;-50
2021/01/31 08:57:04;;;;;;;16.52;8.63;;;;;;;-3.97;90.21;99924.50;4935336;28;20122;-50
2021/01/31 08:59:50;;;;;;;16.88;8.45;;;;;;;-3.72;89.55;99922.94;4933074;28;20043;-50
2021/01/31 09:02:26;;;;;;;21.30;9.00;;;;;;;-3.66;89.66;99932.50;4932375;28;20071;-51
2021/01/31 09:05:06;;;;;;;;;;;;;;;-3.80;89.97;99929.03;4935411;28;20051;-53
2021/01/31 09:07:39;;;;;;;18.13;9.23;;;;;;;-3.58;89.46;99922.25;4936194;28;19959;-50
2021/01/31 09:10:31;;;;;;;19.40;8.85;;;;;;;-4.06;91.71;99923.84;4933502;28;20138;-51
2021/01/31 09:13:27;;;;;;;16.48;8.75;;;;;;;-3.72;91.33;99927.09;4938357;28;20055;-54
2021/01/31 09:16:10;;;;;;;17.55;9.70;;;;;;;-3.89;91.64;99930.88;4932958;28;20075;-50
2021/01/31 09:18:38;;;;;;;18.98;9.52;;;;;;;-3.39;90.69;99926.88;4940946;28;20123;-53
2021/01/31 09:21:44;;;;;;;17.00;9.35;;;;;;;-3.44;89.07;99925.72;4935224;28;20051;-52
2021/01/31 09:24:14;;;;;;;15.93;9.25;;;;;;;-2.90;87.58;99927.69;4891602;29;20172;-48
2021/01/31 09:26:53;;;;;;;18.10;9.90;;;;;;;-3.00;87.87;99932.00;4929101;28;20103;-54
2021/01/31 09:29:24;;;;;;;15.65;9.13;;;;;;;-2.78;87.52;99934.28;4934190;28;20058;-53
2021/01/31 09:32:08;;;;;;;17.98;9.25;;;;;;;-3.40;88.16;99934.31;4944089;28;20583;-52
2021/01/31 09:34:35;;;;;;;18.25;10.50;;;;;;;-3.34;89.12;99938.06;4933993;28;20115;-54
2021/01/31 09:37:24;;;;;;;19.35;9.98;;;;;;;-3.65;89.80;99936.72;4944314;28;20062;-55
2021/01/31 09:39:55;;;;;;;15.82;9.80;;;;;;;-3.13;90.38;99933.66;4949903;28;20051;-48
2021/01/31 09:42:23;;;;;;;21.75;9.75;;;;;;;-2.87;90.29;99937.91;4951507;28;20443;-53
2021/01/31 09:45:00;;;;;;;18.65;9.65;;;;;;;-2.58;86.98;99936.47;4951164;28;20047;-49
2021/01/31 09:47:27;;;;;;;19.85;10.18;;;;;;;-2.42;85.65;99935.81;4949532;28;20051;-55
2021/01/31 09:50:12;;;;;;;18.95;10.00;;;;;;;-2.85;87.71;99938.03;4962935;28;20545;-52
2021/01/31 09:52:47;;;;;;;19.20;9.63;;;;;;;-2.40;85.81;99936.78;4965814;28;20469;-56
2021/01/31 09:55:26;;;;;;;20.23;11.27;;;;;;;-3.13;88.90;99931.16;4948670;28;20411;-49
2021/01/31 09:57:54;;;;;;;21.58;10.52;;;;;;;-2.99;87.70;99936.25;4947501;28;20501;-54
2021/01/31 10:00:30;;;;;;;19.10;9.65;;;;;;;-2.47;87.14;99932.16;4949009;28;20051;-53
2021/01/31 10:03:11;;;;;;;18.40;10.60;;;;;;;-2.87;88.42;99929.53;4949697;28;20134;-54
2021/01/31 10:05:38;;;;;;;20.63;10.60;;;;;;;-2.24;85.55;99926.09;4969201;28;20519;-54
2021/01/31 10:08:12;;;;;;;20.92;10.13;;;;;;;-2.87;88.56;99935.41;4952631;28;20059;-54
2021/01/31 10:10:43;;;;;;;20.05;10.65;;;;;;;-2.55;89.06;99936.66;4969431;28;20135;-50
2021/01/31 10:13:32;;;;;;;20.05;10.48;;;;;;;-2.85;89.91;99936.38;4956402;28;20046;-53
2021/01/31 10:16:02;;;;;;;18.33;9.68;;;;;;;-2.53;87.32;99935.13;4956357;28;20039;-49
2021/01/31 10:18:39;;;;;;;19.48;9.77;;;;;;;-2.64;88.31;99934.41;4970459;28;20494;-53
2021/01/31 10:21:36;;;;;;;20.80;10.63;;;;;;;-2.66;89.04;99933.44;4961236;28;20043;-54
2021/01/31 10:24:17;;;;;;;20.25;10.38;;;;;;;-2.33;88.15;99926.38;4956660;28;20051;-53
2021/01/31 10:26:47;;;;;;;21.42;11.43;;;;;;;-2.21;88.22;99923.81;4960384;28;20369;-53
2021/01/31 10:29:22;;;;;;;15.93;9.05;;;;;;;-2.14;85.88;99920.88;4962660;28;20051;-49
2021/01/31 10:31:48;;;;;;;16.67;9.90;;;;;;;-2.35;87.66;99923.78;4962075;28;20415;-49
2021/01/31 10:34:39;;;;;;;19.05;10.00;;;;;;;-2.23;88.49;99917.81;4961059;28;20093;-55
2021/01/31 10:37:34;;;;;;;18.30;9.75;;;;;;;-2.14;88.37;99919.25;4960485;28;20039;-53
2021/01/31 10:40:03;;;;;;;19.92;10.93;;;;;;;-1.81;87.52;99919.63;4960214;28;20540;-51
2021/01/31 10:42:37;;;;;;;17.70;9.38;;;;;;;-1.87;87.45;99920.13;4954679;28;20413;-54
2021/01/31 10:45:11;;;;;;;18.48;10.75;;;;;;;-2.17;87.39;99921.59;4941243;28;20051;-54
2021/01/31 10:47:38;;;;;;;21.70;11.00;;;;;;;-1.62;86.25;99930.03;4934490;28;20548;-50
2021/01/31 10:50:07;;;;;;;22.02;11.00;;;;;;;-1.56;85.80;99930.41;4937566;28;20059;-51
2021/01/31 10:52:35;;;;;;;17.23;10.25;;;;;;;-1.41;82.64;99927.09;4933805;28;20048;-53
2021/01/31 10:55:03;;;;;;;19.10;10.77;;;;;;;-1.47;83.75;99929.25;4950655;28;20043;-50
2021/01/31 10:57:30;;;;;;;15.80;9.43;;;;;;;-1.70;82.46;99928.69;4936318;28;20066;-51
2021/01/31 10:59:57;;;;;;;17.90;9.77;;;;;;;-1.57;83.60;99925.31;4950576;28;20146;-56
2021/01/31 11:02:24;;;;;;;15.07;9.35;;;;;;;-2.00;84.93;99927.66;4934551;28;20115;-53
2021/01/31 11:05:04;;;;;;;16.13;9.18;;;;;;;-2.42;85.96;99923.28;4937325;28;20055;-53
2021/01/31 11:07:33;;;;;;;16.77;9.75;;;;;;;-2.12;87.74;99917.72;4931270;28;20167;-53
2021/01/31 11:10:00;;;;;;;17.05;10.10;;;;;;;-1.91;86.53;99918.19;4936917;28;20050;-56
2021/01/31 11:12:29;;;;;;;18.20;9.95;;;;;;;-1.83;86.66;99907.00;4937964;28;20138;-53
2021/01/31 11:14:57;;;;;;;17.00;9.35;;;;;;;-1.47;84.99;99914.19;4943408;28;20054;-53
2021/01/31 11:17:24;;;;;;;19.13;10.25;;;;;;;-1.05;83.83;99911.72;4939587;28;20044;-52
2021/01/31 11:19:51;;;;;;;18.52;9.85;;;;;;;-1.12;84.24;99912.13;4936099;28;20470;-56
2021/01/31 11:22:17;;;;;;;17.45;9.93;;;;;;;-0.58;81.56;99902.69;4943934;28;20061;-50
2021/01/31 11:24:44;;;;;;;16.00;9.63;;;;;;;0.28;80.69;99900.75;4935517;28;20048;-55
2021/01/31 11:27:12;;;;;;;14.80;8.20;;;;;;;2.28;70.38;99907.34;4938136;28;20503;-55
2021/01/31 11:29:41;;;;;;;14.13;8.73;;;;;;;6.84;54.94;99912.47;4937841;28;20058;-51
2021/01/31 11:32:08;;;;;;;12.35;7.75;;;;;;;6.13;53.97;99908.66;4949486;28;20433;-53
2021/01/31 11:34:34;;;;;;;11.65;7.75;;;;;;;8.98;47.67;99908.22;4955567;28;20051;-56
2021/01/31 11:37:03;;;;;;;10.52;8.10;;;;;;;9.54;44.73;99913.50;4953137;28;20429;-55
2021/01/31 11:39:29;;;;;;;10.88;8.07;;;;;;;9.26;42.88;99918.09;4955361;28;20062;-50
2021/01/31 11:41:57;;;;;;;11.95;8.77;;;;;;;7.53;48.42;99910.88;4954983;28;20072;-55
2021/01/31 11:44:24;;;;;;;9.50;8.10;;;;;;;10.62;41.43;99922.81;4954257;28;20040;-55
2021/01/31 11:46:52;;;;;;;11.55;9.27;;;;;;;7.79;46.18;99908.97;4954532;28;20059;-52
2021/01/31 11:49:19;;;;;;;9.18;7.72;;;;;;;9.89;42.38;99909.81;4946113;28;20063;-53
2021/01/31 11:51:45;;;;;;;11.02;8.77;;;;;;;8.51;44.50;99905.56;4949097;28;20074;-54
2021/01/31 11:54:13;;;;;;;11.23;8.77;;;;;;;7.74;47.59;99898.66;4951323;28;20054;-57
2021/01/31 11:56:40;;;;;;;10.43;8.90;;;;;;;9.52;43.10;99902.34;4947753;28;20047;-55
2021/01/31 11:59:06;;;;;;;9.73;8.25;;;;;;;9.11;43.48;99897.41;4950851;28;20054;-52
2021/01/31 12:01:37;;;;;;;10.20;8.63;;;;;;;9.53;44.85;99891.31;4948900;28;20380;-57
2021/01/31 12:04:04;;;;;;;9.57;8.40;;;;;;;10.26;40.50;99897.63;4951208;28;20055;-55
2021/01/31 12:06:31;;;;;;;10.60;9.50;;;;;;;8.71;44.32;99891.50;4952878;28;20042;-54
2021/01/31 12:08:59;;;;;;;11.68;9.68;;;;;;;8.49;45.24;99895.28;4972898;28;20047;-53
2021/01/31 12:11:26;;;;;;;10.35;9.15;;;;;;;8.65;45.79;99892.25;4954032;28;20054;-55
2021/01/31 12:13:52;;;;;;;9.18;7.97;;;;;;;9.87;43.39;99891.03;4935345;28;20057;-54
2021/01/31 12:16:19;;;;;;;12.45;9.20;;;;;;;9.08;43.13;99882.84;4933592;28;20137;-56
2021/01/31 12:18:46;;;;;;;10.75;8.98;;;;;;;10.12;40.41;99883.72;4937015;28;20401;-55